Time;durP1;ratioP1;P1;durP2;ratioP2;P2;SDS_P1;SDS_P2;PMS_P1;PMS_P2;Temp;Humidity;BMP_temperature;BMP_pressure;BME280_temperature;BME280_humidity;BME280_pressure;Samples;Min_cycle;Max_cycle;Signal;HPM_P1;HPM_P2
2022/11/06 00:01:09;;;;;;;3.72;2.72;;;;;;;;;;5038150;28;20052;-87
2022/11/06 00:03:35;;;;;;;5.32;2.88;;;;;;;;;;5038236;28;20033;-86
2022/11/06 00:08:52;;;;;;;4.95;2.67;;;;;;;;;;5020679;28;20038;-86
2022/11/06 00:11:18;;;;;;;3.63;3.00;;;;;;;;;;5020221;28;20132;-86
2022/11/06 00:13:44;;;;;;;3.92;2.70;;;;;;;;;;5018464;28;20041;-86
2022/11/06 00:16:11;;;;;;;5.82;2.83;;;;;;;;;;5003106;28;20173;-86
2022/11/06 00:18:37;;;;;;;4.90;2.63;;;;;;;;;;5037589;28;20402;-86
2022/11/06 00:21:12;;;;;;;3.22;2.40;;;;;;;;;;5019131;28;20056;-86
2022/11/06 00:23:51;;;;;;;3.58;2.63;;;;;;;;;;5037302;28;20053;-85
2022/11/06 00:26:25;;;;;;;3.42;2.30;;;;;;;;;;5036580;28;20524;-86
2022/11/06 00:28:52;;;;;;;4.20;2.70;;;;;;;;;;5037514;28;20131;-86
2022/11/06 00:31:28;;;;;;;4.05;2.55;;;;;;;;;;5037040;28;20089;-87
2022/11/06 00:33:57;;;;;;;3.00;2.35;;;;;;;;;;5037342;28;20486;-87
2022/11/06 00:36:23;;;;;;;2.88;2.45;;;;;;;;;;5036843;28;20035;-87
2022/11/06 00:38:54;;;;;;;4.22;2.40;;;;;;;;;;5019563;28;20482;-86
2022/11/06 00:41:20;;;;;;;4.38;2.40;;;;;;;;;;5019699;28;20029;-86
2022/11/06 00:43:50;;;;;;;4.38;2.40;;;;;;;;;;5019651;28;20387;-87
2022/11/06 00:46:17;;;;;;;3.75;2.50;;;;;;;;;;5036801;28;20112;-87
2022/11/06 00:48:43;;;;;;;3.83;2.72;;;;;;;;;;5019940;28;20072;-87
2022/11/06 00:51:11;;;;;;;2.92;2.50;;;;;;;;;;5037711;28;20041;-86
2022/11/06 00:53:47;;;;;;;5.80;2.38;;;;;;;;;;5019653;28;20021;-87
2022/11/06 00:56:20;;;;;;;4.18;3.00;;;;;;;;;;5019692;28;20029;-86
2022/11/06 00:58:46;;;;;;;4.35;2.90;;;;;;;;;;5040876;28;20106;-86
2022/11/06 01:01:24;;;;;;;4.65;2.78;;;;;;;;;;5023341;28;20037;-86
2022/11/06 01:03:55;;;;;;;9.15;3.08;;;;;;;;;;5041319;28;20105;-86
2022/11/06 01:06:23;;;;;;;6.53;2.95;;;;;;;;;;5022476;28;20025;-86
2022/11/06 01:08:51;;;;;;;5.88;3.00;;;;;;;;;;5040593;28;20029;-86
2022/11/06 01:11:19;;;;;;;5.03;3.08;;;;;;;;;;5022917;28;20052;-86
2022/11/06 01:13:48;;;;;;;5.50;3.10;;;;;;;;;;5021267;28;20095;-86
2022/11/06 01:16:15;;;;;;;3.28;2.55;;;;;;;;;;5022389;28;20063;-86
2022/11/06 01:18:42;;;;;;;4.05;2.20;;;;;;;;;;5022946;28;20026;-86
2022/11/06 01:21:16;;;;;;;2.88;2.15;;;;;;;;;;5022723;28;20083;-86
2022/11/06 01:23:51;;;;;;;4.13;2.03;;;;;;;;;;5022907;28;20041;-86
2022/11/06 01:26:17;;;;;;;3.50;2.20;;;;;;;;;;5039818;28;20410;-86
2022/11/06 01:28:42;;;;;;;3.40;2.05;;;;;;;;;;5040398;28;20041;-87
2022/11/06 01:31:14;;;;;;;3.15;2.30;;;;;;;;;;5040726;28;20045;-86
2022/11/06 01:33:40;;;;;;;2.95;2.15;;;;;;;;;;5040493;28;20097;-87
2022/11/06 01:36:11;;;;;;;3.10;2.50;;;;;;;;;;5021828;28;20033;-86
2022/11/06 01:38:43;;;;;;;3.38;2.67;;;;;;;;;;5022860;28;20029;-86
2022/11/06 01:41:13;;;;;;;3.05;2.53;;;;;;;;;;5022714;28;20033;-86
2022/11/06 01:43:49;;;;;;;5.35;2.85;;;;;;;;;;5022554;28;20406;-87
2022/11/06 01:46:19;;;;;;;3.90;2.55;;;;;;;;;;5038692;28;20041;-85
2022/11/06 01:48:49;;;;;;;4.30;2.88;;;;;;;;;;5040126;28;20037;-86
2022/11/06 01:51:15;;;;;;;3.95;3.00;;;;;;;;;;5039625;28;20142;-87
2022/11/06 01:53:40;;;;;;;3.80;2.83;;;;;;;;;;5039306;28;20044;-86
2022/11/06 01:56:44;;;;;;;3.65;2.60;;;;;;;;;;5039064;28;20048;-86
2022/11/06 01:59:14;;;;;;;3.88;3.03;;;;;;;;;;4998349;28;20449;-85
2022/11/06 02:01:40;;;;;;;4.53;3.10;;;;;;;;;;5039687;28;20421;-85
2022/11/06 02:04:13;;;;;;;4.53;2.80;;;;;;;;;;5039205;28;20116;-86
2022/11/06 02:06:39;;;;;;;4.47;2.60;;;;;;;;;;5039453;28;20042;-87
2022/11/06 02:09:10;;;;;;;3.53;2.35;;;;;;;;;;5022129;28;20116;-86
2022/11/06 02:11:44;;;;;;;4.00;2.20;;;;;;;;;;5039850;28;20102;-86
2022/11/06 02:14:38;;;;;;;3.22;2.28;;;;;;;;;;5038172;28;20037;-85
2022/11/06 02:17:10;;;;;;;4.32;2.42;;;;;;;;;;5038408;28;20041;-86
2022/11/06 02:19:39;;;;;;;3.33;2.57;;;;;;;;;;5005297;28;20064;-86
2022/11/06 02:22:30;;;;;;;3.25;2.50;;;;;;;;;;5038809;28;20429;-86
2022/11/06 02:25:17;;;;;;;3.80;2.50;;;;;;;;;;5037796;28;20069;-86
2022/11/06 02:28:38;;;;;;;3.60;2.60;;;;;;;;;;5038274;28;20489;-86
2022/11/06 02:31:11;;;;;;;2.50;2.10;;;;;;;;;;4957991;29;20047;-86
2022/11/06 02:33:44;;;;;;;3.25;2.20;;;;;;;;;;5027944;28;20041;-86
2022/11/06 02:36:15;;;;;;;3.78;2.28;;;;;;;;;;5038836;28;20041;-87
2022/11/06 02:38:49;;;;;;;3.25;2.00;;;;;;;;;;5038860;28;20032;-87
2022/11/06 02:41:21;;;;;;;3.38;2.60;;;;;;;;;;5021325;28;20037;-87
2022/11/06 02:43:54;;;;;;;3.90;2.87;;;;;;;;;;5021745;28;20208;-86
2022/11/06 02:46:36;;;;;;;4.13;2.78;;;;;;;;;;5038208;28;20372;-86
2022/11/06 02:49:18;;;;;;;3.83;2.70;;;;;;;;;;5020949;28;20087;-86
2022/11/06 02:51:49;;;;;;;4.75;2.80;;;;;;;;;;5038408;28;20117;-86
2022/11/06 02:54:15;;;;;;;4.20;2.85;;;;;;;;;;5038205;28;20406;-86
2022/11/06 02:56:44;;;;;;;3.30;2.58;;;;;;;;;;5038813;28;20044;-86
2022/11/06 02:59:18;;;;;;;3.63;2.78;;;;;;;;;;5038032;28;20448;-86
2022/11/06 03:01:50;;;;;;;5.03;3.13;;;;;;;;;;5019979;28;20034;-87
2022/11/06 03:04:26;;;;;;;4.20;3.10;;;;;;;;;;5019965;28;20041;-87
2022/11/06 03:06:58;;;;;;;5.20;2.75;;;;;;;;;;5038764;28;20121;-86
2022/11/06 03:09:27;;;;;;;4.25;2.92;;;;;;;;;;5020708;28;20046;-87
2022/11/06 03:12:00;;;;;;;4.13;3.08;;;;;;;;;;5038675;28;20052;-87
2022/11/06 03:14:38;;;;;;;5.55;3.50;;;;;;;;;;5036577;28;20038;-86
2022/11/06 03:17:16;;;;;;;4.47;3.25;;;;;;;;;;5037978;28;20033;-86
2022/11/06 03:20:10;;;;;;;4.50;3.40;;;;;;;;;;5020674;28;20141;-86
2022/11/06 03:22:57;;;;;;;5.70;3.40;;;;;;;;;;5038786;28;20033;-86
2022/11/06 03:25:28;;;;;;;4.57;3.28;;;;;;;;;;5018697;28;20128;-85
2022/11/06 03:28:00;;;;;;;4.60;3.10;;;;;;;;;;5020245;28;20049;-86
2022/11/06 03:30:25;;;;;;;4.32;3.20;;;;;;;;;;5020611;28;20033;-86
2022/11/06 03:33:13;;;;;;;4.38;3.22;;;;;;;;;;5020220;28;20611;-86
2022/11/06 03:35:50;;;;;;;5.18;3.22;;;;;;;;;;5037693;28;20156;-86
2022/11/06 03:38:27;;;;;;;4.47;3.03;;;;;;;;;;5038042;28;20049;-86
2022/11/06 03:40:58;;;;;;;5.68;3.10;;;;;;;;;;5037783;28;20080;-86
2022/11/06 03:43:27;;;;;;;4.05;2.90;;;;;;;;;;5038130;28;20045;-86
2022/11/06 03:45:55;;;;;;;3.90;2.97;;;;;;;;;;5019660;28;20061;-86
2022/11/06 03:48:37;;;;;;;5.80;2.40;;;;;;;;;;5037809;28;20041;-85
2022/11/06 03:51:40;;;;;;;3.40;2.50;;;;;;;;;;5037345;28;20056;-86
2022/11/06 03:54:13;;;;;;;2.83;2.22;;;;;;;;;;5005372;28;20057;-85
2022/11/06 03:57:03;;;;;;;3.65;2.50;;;;;;;;;;5036977;28;20065;-86
2022/11/06 03:59:34;;;;;;;3.67;2.40;;;;;;;;;;5037722;28;20038;-86
2022/11/06 04:02:01;;;;;;;4.43;2.33;;;;;;;;;;5018968;28;20164;-86
2022/11/06 04:04:31;;;;;;;5.40;2.45;;;;;;;;;;5036324;28;20033;-86
2022/11/06 04:06:59;;;;;;;2.88;2.17;;;;;;;;;;5037128;28;20056;-86
2022/11/06 04:15:07;;;;;;;3.13;2.47;;;;;;;;;;5017983;28;20073;-85
2022/11/06 04:17:33;;;;;;;3.78;2.50;;;;;;;;;;5037006;28;20124;-85
2022/11/06 04:20:01;;;;;;;3.60;2.50;;;;;;;;;;5019219;28;20148;-86
2022/11/06 04:22:57;;;;;;;3.38;2.53;;;;;;;;;;5019258;28;20034;-86
2022/11/06 04:28:20;;;;;;;2.90;2.20;;;;;;;;;;5036635;28;20057;-85
2022/11/06 04:31:01;;;;;;;4.68;2.92;;;;;;;;;;5037048;28;20056;-86
2022/11/06 04:33:34;;;;;;;4.47;2.83;;;;;;;;;;5040930;28;20029;-85
2022/11/06 04:36:10;;;;;;;6.27;3.97;;;;;;;;;;5022509;28;20029;-86
2022/11/06 04:39:13;;;;;;;5.90;3.83;;;;;;;;;;5040317;28;20625;-86
2022/11/06 04:41:46;;;;;;;10.20;5.32;;;;;;;;;;5023524;28;20061;-85
2022/11/06 04:44:23;;;;;;;5.03;3.17;;;;;;;;;;5040256;28;20125;-86
2022/11/06 04:46:58;;;;;;;3.67;2.40;;;;;;;;;;5030672;22;20042;-81
2022/11/06 04:49:28;;;;;;;3.00;2.20;;;;;;;;;;4998856;28;20066;-83
2022/11/06 04:51:54;;;;;;;2.70;2.05;;;;;;;;;;4997140;28;20117;-83
2022/11/06 04:54:21;;;;;;;2.47;1.90;;;;;;;;;;4999244;28;20042;-84
2022/11/06 04:56:47;;;;;;;3.83;2.10;;;;;;;;;;4997067;28;20030;-82
2022/11/06 04:59:17;;;;;;;4.38;2.10;;;;;;;;;;4998301;28;20093;-82
2022/11/06 05:01:44;;;;;;;2.83;2.13;;;;;;;;;;4981289;28;20038;-82
2022/11/06 05:04:10;;;;;;;5.78;3.13;;;;;;;;;;4997997;28;20118;-82
2022/11/06 05:06:35;;;;;;;2.88;2.33;;;;;;;;;;4996880;28;20058;-82
2022/11/06 05:09:01;;;;;;;3.20;2.20;;;;;;;;;;4998614;28;20046;-82
2022/11/06 05:11:27;;;;;;;3.38;2.45;;;;;;;;;;4997969;28;20034;-82
2022/11/06 05:13:52;;;;;;;2.97;2.22;;;;;;;;;;4996494;28;20045;-82
2022/11/06 05:16:18;;;;;;;2.45;1.95;;;;;;;;;;4997552;28;20054;-83
2022/11/06 05:18:43;;;;;;;4.53;2.10;;;;;;;;;;4998679;28;20626;-82
2022/11/06 05:23:53;;;;;;;2.90;1.70;;;;;;;;;;4998070;28;20034;-82
2022/11/06 05:26:19;;;;;;;3.92;1.80;;;;;;;;;;4996231;28;20042;-83
2022/11/06 05:28:44;;;;;;;2.40;1.90;;;;;;;;;;4981249;28;20085;-84
2022/11/06 05:31:10;;;;;;;2.58;1.95;;;;;;;;;;4998077;28;20518;-84
2022/11/06 05:33:35;;;;;;;4.70;2.20;;;;;;;;;;4998095;28;20026;-82
2022/11/06 05:36:05;;;;;;;2.25;1.88;;;;;;;;;;4996170;28;20062;-83
2022/11/06 05:38:31;;;;;;;3.00;2.08;;;;;;;;;;4996547;28;20038;-82
2022/11/06 05:40:57;;;;;;;2.60;1.98;;;;;;;;;;4996761;28;20427;-83
2022/11/06 05:43:23;;;;;;;2.50;2.00;;;;;;;;;;4996496;28;20038;-83
2022/11/06 05:45:48;;;;;;;2.80;1.88;;;;;;;;;;4995973;28;20035;-83
2022/11/06 05:48:14;;;;;;;2.25;1.70;;;;;;;;;;4997814;28;20030;-83
2022/11/06 05:50:39;;;;;;;2.60;1.90;;;;;;;;;;4997263;28;20049;-83
2022/11/06 05:53:13;;;;;;;5.82;1.90;;;;;;;;;;4997719;28;20038;-83
2022/11/06 05:55:39;;;;;;;2.70;1.80;;;;;;;;;;4995712;28;20045;-82
2022/11/06 05:58:04;;;;;;;2.72;2.10;;;;;;;;;;4996323;28;20030;-83
2022/11/06 06:00:30;;;;;;;4.75;2.05;;;;;;;;;;4996375;28;20030;-83
2022/11/06 06:02:55;;;;;;;3.10;2.30;;;;;;;;;;4997489;28;20026;-83
2022/11/06 06:05:21;;;;;;;2.97;2.05;;;;;;;;;;4997444;28;20725;-83
2022/11/06 06:07:46;;;;;;;3.97;2.50;;;;;;;;;;4996357;28;20423;-82
2022/11/06 06:10:12;;;;;;;3.63;2.25;;;;;;;;;;4997014;28;20134;-83
2022/11/06 06:12:38;;;;;;;3.90;2.50;;;;;;;;;;4997598;28;20092;-83
2022/11/06 06:15:05;;;;;;;4.95;3.08;;;;;;;;;;4994197;28;20506;-82
2022/11/06 06:17:31;;;;;;;4.05;3.00;;;;;;;;;;4997179;28;20396;-82
2022/11/06 06:19:56;;;;;;;4.53;3.00;;;;;;;;;;4996092;28;20033;-81
2022/11/06 06:22:22;;;;;;;4.47;3.10;;;;;;;;;;4995207;28;20491;-83
2022/11/06 06:24:47;;;;;;;4.70;3.10;;;;;;;;;;4978870;28;20044;-82
2022/11/06 06:27:13;;;;;;;4.32;3.08;;;;;;;;;;4995458;28;20030;-82
2022/11/06 06:29:38;;;;;;;4.38;3.08;;;;;;;;;;4997886;28;20507;-83
2022/11/06 06:32:04;;;;;;;3.92;3.03;;;;;;;;;;4995497;28;20384;-83
2022/11/06 06:34:29;;;;;;;3.80;1.85;;;;;;;;;;4995494;28;20066;-83
2022/11/06 06:36:55;;;;;;;2.67;2.00;;;;;;;;;;5012199;28;20069;-83
2022/11/06 06:39:20;;;;;;;2.60;1.85;;;;;;;;;;5011985;28;20041;-83
2022/11/06 06:41:47;;;;;;;4.68;3.35;;;;;;;;;;4996791;28;20038;-84
2022/11/06 06:44:13;;;;;;;5.00;3.10;;;;;;;;;;4994890;28;20042;-84
2022/11/06 06:46:39;;;;;;;4.70;3.38;;;;;;;;;;4983645;28;20038;-84
2022/11/06 06:49:04;;;;;;;4.60;2.90;;;;;;;;;;4975974;28;20038;-83
2022/11/06 06:51:30;;;;;;;3.58;2.63;;;;;;;;;;4980083;28;20030;-83
2022/11/06 06:53:55;;;;;;;3.83;2.83;;;;;;;;;;4978842;28;20567;-82
2022/11/06 06:56:21;;;;;;;3.83;2.72;;;;;;;;;;4993923;28;20053;-83
2022/11/06 06:58:46;;;;;;;4.18;2.83;;;;;;;;;;4996100;28;20038;-82
2022/11/06 07:01:12;;;;;;;3.83;2.80;;;;;;;;;;4997305;28;20030;-83
2022/11/06 07:03:38;;;;;;;3.53;2.47;;;;;;;;;;4996016;28;20030;-82
2022/11/06 07:06:05;;;;;;;5.18;2.70;;;;;;;;;;4994949;28;20476;-82
2022/11/06 07:08:31;;;;;;;4.63;2.80;;;;;;;;;;4996159;28;20030;-83
2022/11/06 07:11:02;;;;;;;4.10;2.90;;;;;;;;;;4973108;28;20170;-83
2022/11/06 07:13:27;;;;;;;7.30;2.70;;;;;;;;;;4956969;28;20035;-82
2022/11/06 07:15:53;;;;;;;3.58;2.45;;;;;;;;;;4939972;29;20052;-82
2022/11/06 07:18:18;;;;;;;3.08;2.25;;;;;;;;;;4958438;28;20080;-82
2022/11/06 07:20:44;;;;;;;4.32;2.83;;;;;;;;;;4956749;28;20087;-83
2022/11/06 07:23:09;;;;;;;3.97;2.50;;;;;;;;;;4958506;28;20038;-83
2022/11/06 07:25:35;;;;;;;5.90;3.03;;;;;;;;;;4974930;28;20111;-83
2022/11/06 07:28:02;;;;;;;4.32;2.70;;;;;;;;;;4973518;28;20106;-84
2022/11/06 07:30:28;;;;;;;3.20;2.50;;;;;;;;;;4965082;28;20459;-81
2022/11/06 07:32:54;;;;;;;3.65;2.65;;;;;;;;;;4958522;28;20027;-81
2022/11/06 07:35:19;;;;;;;3.95;2.85;;;;;;;;;;4955248;28;20078;-83
2022/11/06 07:37:44;;;;;;;3.00;2.20;;;;;;;;;;4972797;28;20031;-82
2022/11/06 07:40:10;;;;;;;3.33;2.15;;;;;;;;;;4957663;28;20089;-81
2022/11/06 07:42:35;;;;;;;3.67;2.40;;;;;;;;;;4975228;28;20523;-82
2022/11/06 07:45:02;;;;;;;5.03;2.40;;;;;;;;;;4974365;28;20031;-83
2022/11/06 07:47:29;;;;;;;3.55;2.60;;;;;;;;;;4955570;28;20033;-83
2022/11/06 07:49:55;;;;;;;3.40;2.47;;;;;;;;;;4957872;28;20046;-82
2022/11/06 07:52:20;;;;;;;3.20;2.20;;;;;;;;;;4975092;28;20407;-81
2022/11/06 07:54:46;;;;;;;2.83;2.28;;;;;;;;;;4974324;28;20041;-82
2022/11/06 07:57:12;;;;;;;2.53;2.25;;;;;;;;;;4974816;28;20042;-84
2022/11/06 07:59:37;;;;;;;4.28;2.33;;;;;;;;;;4975967;28;20047;-83
2022/11/06 08:02:02;;;;;;;3.33;2.30;;;;;;;;;;4976348;28;20606;-84
2022/11/06 08:04:28;;;;;;;3.72;2.20;;;;;;;;;;4974966;28;20428;-84
2022/11/06 08:06:53;;;;;;;3.00;2.10;;;;;;;;;;4973886;28;20027;-82
2022/11/06 08:09:19;;;;;;;2.50;1.92;;;;;;;;;;4976418;28;20054;-83
2022/11/06 08:11:44;;;;;;;2.90;2.10;;;;;;;;;;4975189;28;20045;-83
2022/11/06 08:14:10;;;;;;;2.70;1.83;;;;;;;;;;4975611;28;20062;-85
2022/11/06 08:16:35;;;;;;;2.70;1.88;;;;;;;;;;4967541;28;20034;-83
2022/11/06 08:19:01;;;;;;;2.63;1.80;;;;;;;;;;4972293;28;20031;-84
2022/11/06 08:21:27;;;;;;;2.30;1.83;;;;;;;;;;4956625;28;20489;-83
2022/11/06 08:23:52;;;;;;;3.05;2.25;;;;;;;;;;4961507;28;20086;-84
2022/11/06 08:26:18;;;;;;;3.35;1.95;;;;;;;;;;4976498;28;20062;-85
2022/11/06 08:28:43;;;;;;;2.67;2.05;;;;;;;;;;4976775;28;20050;-84
2022/11/06 08:31:09;;;;;;;2.47;1.90;;;;;;;;;;4975466;28;20039;-83
2022/11/06 08:33:36;;;;;;;2.55;1.92;;;;;;;;;;4975198;28;20039;-83
2022/11/06 08:36:06;;;;;;;2.65;1.95;;;;;;;;;;4990483;28;20039;-83
2022/11/06 08:38:32;;;;;;;3.38;2.10;;;;;;;;;;4974772;28;20447;-83
2022/11/06 08:40:57;;;;;;;2.60;1.88;;;;;;;;;;4974711;28;20476;-84
2022/11/06 08:43:26;;;;;;;2.40;1.80;;;;;;;;;;4974670;28;20034;-82
2022/11/06 08:45:52;;;;;;;2.90;2.10;;;;;;;;;;4973576;28;20050;-82
2022/11/06 08:48:17;;;;;;;1.92;1.35;;;;;;;;;;4975876;28;20038;-83
2022/11/06 08:50:43;;;;;;;2.28;1.70;;;;;;;;;;4976841;28;20500;-84
2022/11/06 08:53:09;;;;;;;2.53;1.75;;;;;;;;;;4976811;28;20484;-85
2022/11/06 08:55:36;;;;;;;1.73;1.33;;;;;;;;;;4975020;28;20030;-84
2022/11/06 08:58:02;;;;;;;2.17;1.60;;;;;;;;;;4975473;28;20031;-84
2022/11/06 09:00:29;;;;;;;2.58;1.60;;;;;;;;;;4976827;28;20499;-83
2022/11/06 09:02:59;;;;;;;3.17;1.50;;;;;;;;;;4976507;28;20506;-85
2022/11/06 09:05:24;;;;;;;2.17;1.40;;;;;;;;;;4976862;28;20058;-83
2022/11/06 09:07:50;;;;;;;1.73;1.30;;;;;;;;;;4978592;28;20042;-83
2022/11/06 09:10:15;;;;;;;2.22;1.52;;;;;;;;;;4987168;28;20050;-82
2022/11/06 09:12:41;;;;;;;2.47;1.50;;;;;;;;;;4976562;28;20046;-83
2022/11/06 09:15:07;;;;;;;1.58;1.30;;;;;;;;;;4974282;28;20527;-84
2022/11/06 09:17:32;;;;;;;1.88;1.40;;;;;;;;;;4976575;28;20038;-83
2022/11/06 09:19:58;;;;;;;1.45;1.25;;;;;;;;;;4979631;28;20387;-80
2022/11/06 09:22:23;;;;;;;2.40;1.48;;;;;;;;;;4978772;28;20039;-85
2022/11/06 09:24:49;;;;;;;2.30;1.38;;;;;;;;;;4978984;28;20089;-83
2022/11/06 09:27:14;;;;;;;1.70;1.20;;;;;;;;;;4962425;28;20052;-84
2022/11/06 09:29:42;;;;;;;2.13;1.20;;;;;;;;;;4980097;28;20178;-83
2022/11/06 09:32:09;;;;;;;1.52;1.20;;;;;;;;;;4978409;28;20049;-81
2022/11/06 09:34:34;;;;;;;1.52;1.20;;;;;;;;;;4978325;28;20035;-84
2022/11/06 09:37:02;;;;;;;4.03;2.10;;;;;;;;;;4962456;28;20046;-84
2022/11/06 09:39:27;;;;;;;2.38;1.50;;;;;;;;;;4978031;28;20041;-83
2022/11/06 09:41:58;;;;;;;1.23;1.10;;;;;;;;;;4979231;28;20034;-84
2022/11/06 09:44:55;;;;;;;1.42;1.20;;;;;;;;;;4993622;28;20043;-83
2022/11/06 09:47:25;;;;;;;1.83;1.20;;;;;;;;;;4941033;28;1092857;-82
2022/11/06 09:49:56;;;;;;;1.35;1.10;;;;;;;;;;4979350;28;20043;-83
2022/11/06 09:52:43;;;;;;;1.40;1.02;;;;;;;;;;4979525;28;20035;-83
2022/11/06 09:55:20;;;;;;;1.27;1.02;;;;;;;;;;4977703;28;20034;-82
2022/11/06 09:58:08;;;;;;;1.30;1.00;;;;;;;;;;4962254;28;20090;-84
2022/11/06 10:00:34;;;;;;;1.60;1.20;;;;;;;;;;4993987;28;20034;-83
2022/11/06 10:03:14;;;;;;;2.67;1.33;;;;;;;;;;4978773;28;20389;-83
2022/11/06 10:05:40;;;;;;;2.38;1.40;;;;;;;;;;4976924;28;20125;-83
2022/11/06 10:08:14;;;;;;;1.38;1.02;;;;;;;;;;4978801;28;20090;-83
2022/11/06 10:11:01;;;;;;;1.17;1.00;;;;;;;;;;4979138;28;20074;-82
2022/11/06 10:13:34;;;;;;;1.33;1.00;;;;;;;;;;4976149;28;20039;-84
2022/11/06 10:16:05;;;;;;;1.85;1.13;;;;;;;;;;4977813;28;20031;-82
2022/11/06 10:18:36;;;;;;;1.50;1.05;;;;;;;;;;4979218;28;20038;-84
2022/11/06 10:21:17;;;;;;;1.40;1.10;;;;;;;;;;4978623;28;20039;-82
2022/11/06 10:23:56;;;;;;;2.45;1.80;;;;;;;;;;4976974;28;20369;-83
2022/11/06 10:26:49;;;;;;;2.53;1.45;;;;;;;;;;4992549;28;20102;-83
2022/11/06 10:29:25;;;;;;;4.07;2.17;;;;;;;;;;4975633;28;20038;-83
2022/11/06 10:31:59;;;;;;;1.30;1.20;;;;;;;;;;4978289;28;20038;-84
2022/11/06 10:34:42;;;;;;;1.45;1.10;;;;;;;;;;4978035;28;20035;-83
2022/11/06 10:37:17;;;;;;;1.83;1.40;;;;;;;;;;4976603;28;20080;-83
2022/11/06 10:39:45;;;;;;;1.77;1.48;;;;;;;;;;4977001;28;20027;-83
2022/11/06 10:42:43;;;;;;;2.30;1.60;;;;;;;;;;4976977;28;20526;-83
2022/11/06 10:45:17;;;;;;;2.10;1.52;;;;;;;;;;4975010;28;20058;-83
2022/11/06 10:47:45;;;;;;;;;;;;;;;;;;5013042;23;20046;-83
2022/11/06 10:50:13;;;;;;;1.85;1.55;;;;;;;;;;4997515;28;20575;-85
2022/11/06 10:52:45;;;;;;;1.92;1.63;;;;;;;;;;4998537;28;20033;-85
2022/11/06 10:55:33;;;;;;;2.22;1.45;;;;;;;;;;4997570;28;20502;-85
2022/11/06 10:58:08;;;;;;;2.30;1.70;;;;;;;;;;4997963;28;20121;-85
2022/11/06 11:00:34;;;;;;;1.80;1.30;;;;;;;;;;4997421;28;20164;-85
2022/11/06 11:03:05;;;;;;;3.72;2.92;;;;;;;;;;4998015;28;20033;-85
2022/11/06 11:05:38;;;;;;;120.53;61.58;;;;;;;;;;4997099;28;20377;-84
2022/11/06 11:08:04;;;;;;;108.05;48.25;;;;;;;;;;4997743;28;20030;-85
2022/11/06 11:10:34;;;;;;;24.20;12.38;;;;;;;;;;4976481;28;20033;-85
2022/11/06 11:13:01;;;;;;;317.55;132.75;;;;;;;;;;4959424;28;20054;-85
2022/11/06 11:15:37;;;;;;;18.42;8.43;;;;;;;;;;4960708;28;20046;-86
2022/11/06 11:18:13;;;;;;;100.35;37.60;;;;;;;;;;4978220;28;20041;-85
2022/11/06 11:20:41;;;;;;;19.92;11.40;;;;;;;;;;4978371;28;20121;-85
2022/11/06 11:23:24;;;;;;;29.17;17.27;;;;;;;;;;4960952;28;20049;-86
2022/11/06 11:26:10;;;;;;;73.18;52.20;;;;;;;;;;4977531;28;20510;-87
2022/11/06 11:28:38;;;;;;;12.85;11.52;;;;;;;;;;4977639;28;20046;-85
2022/11/06 11:31:29;;;;;;;8.30;4.50;;;;;;;;;;4959914;28;20500;-85
2022/11/06 11:33:58;;;;;;;1.30;1.10;;;;;;;;;;4968178;28;20046;-86
2022/11/06 11:36:24;;;;;;;1.52;1.00;;;;;;;;;;4977229;28;20023;-85
2022/11/06 11:38:50;;;;;;;1.63;1.10;;;;;;;;;;4960065;28;20408;-84
2022/11/06 11:41:18;;;;;;;2.05;1.10;;;;;;;;;;4976585;28;20089;-85
2022/11/06 11:43:56;;;;;;;1.15;1.05;;;;;;;;;;4960073;28;20053;-84
2022/11/06 11:46:22;;;;;;;1.02;0.90;;;;;;;;;;4959430;28;20068;-85
2022/11/06 11:48:47;;;;;;;2.60;1.10;;;;;;;;;;4960222;28;20427;-85
2022/11/06 11:51:25;;;;;;;1.70;1.20;;;;;;;;;;4976817;28;20521;-84
2022/11/06 11:53:55;;;;;;;1.10;0.90;;;;;;;;;;4959201;28;20047;-85
2022/11/06 11:56:21;;;;;;;53.85;28.48;;;;;;;;;;4959690;28;20035;-85
2022/11/06 11:58:53;;;;;;;4.13;2.58;;;;;;;;;;4976877;28;20056;-86
2022/11/06 12:01:34;;;;;;;303.55;137.10;;;;;;;;;;4960287;28;20046;-85
2022/11/06 12:04:06;;;;;;;201.02;76.93;;;;;;;;;;4976897;28;20157;-85
2022/11/06 12:06:32;;;;;;;26.73;12.30;;;;;;;;;;4959800;28;20600;-85
2022/11/06 12:08:57;;;;;;;130.10;58.33;;;;;;;;;;4960917;28;20042;-88
2022/11/06 12:11:26;;;;;;;6.55;4.18;;;;;;;;;;4977904;28;20648;-87
2022/11/06 12:14:22;;;;;;;34.85;22.88;;;;;;;;;;4977469;28;20026;-86
2022/11/06 12:16:52;;;;;;;7.88;5.78;;;;;;;;;;4976973;28;20488;-86
2022/11/06 12:19:20;;;;;;;4.88;3.50;;;;;;;;;;4976753;28;20045;-86
2022/11/06 12:21:53;;;;;;;2.70;1.70;;;;;;;;;;4977405;28;20504;-86
2022/11/06 12:24:51;;;;;;;7.40;2.60;;;;;;;;;;4976645;28;20437;-86
2022/11/06 12:27:37;;;;;;;5.70;3.00;;;;;;;;;;4976660;28;20039;-86
2022/11/06 12:30:09;;;;;;;6.90;3.25;;;;;;;;;;4977314;28;20106;-86
2022/11/06 12:33:01;;;;;;;7.47;5.10;;;;;;;;;;4943869;28;20141;-85
2022/11/06 12:35:53;;;;;;;4.40;1.92;;;;;;;;;;4959216;28;20039;-85
2022/11/06 12:38:23;;;;;;;2.67;2.00;;;;;;;;;;4976333;28;20065;-86
2022/11/06 12:41:00;;;;;;;4.72;3.53;;;;;;;;;;4959888;28;20097;-86
2022/11/06 12:43:29;;;;;;;2.22;1.60;;;;;;;;;;4959313;28;20039;-85
2022/11/06 12:46:01;;;;;;;6.90;4.20;;;;;;;;;;4958589;28;20081;-85
2022/11/06 12:48:46;;;;;;;4.70;2.70;;;;;;;;;;4977126;28;20495;-85
2022/11/06 12:51:36;;;;;;;3.75;2.42;;;;;;;;;;4976528;28;20039;-84
2022/11/06 12:54:27;;;;;;;2.92;2.38;;;;;;;;;;4979379;28;20510;-85
2022/11/06 12:57:16;;;;;;;2.85;1.75;;;;;;;;;;4980594;28;20121;-85
2022/11/06 12:59:54;;;;;;;4.05;2.50;;;;;;;;;;4963083;28;20103;-86
2022/11/06 13:02:55;;;;;;;2.20;1.52;;;;;;;;;;4980860;28;20043;-85
2022/11/06 13:05:39;;;;;;;2.25;1.60;;;;;;;;;;4962562;28;20162;-86
2022/11/06 13:08:25;;;;;;;;;;;;;;;;;;4981012;28;20097;-83
2022/11/06 13:10:57;;;;;;;2.25;1.70;;;;;;;;;;4980592;28;19993;-85
2022/11/06 13:13:49;;;;;;;2.10;1.80;;;;;;;;;;4978709;28;20046;-85
2022/11/06 13:16:36;;;;;;;3.65;1.48;;;;;;;;;;4949284;28;20388;-86
2022/11/06 13:19:24;;;;;;;2.22;1.70;;;;;;;;;;4962706;28;20039;-86
2022/11/06 13:21:50;;;;;;;2.00;1.42;;;;;;;;;;4962033;28;20038;-86
2022/11/06 13:24:38;;;;;;;1.90;1.58;;;;;;;;;;4979320;28;20042;-85
2022/11/06 13:27:17;;;;;;;2.15;1.60;;;;;;;;;;4961971;28;20039;-85
2022/11/06 13:29:44;;;;;;;1.65;1.33;;;;;;;;;;4980586;28;20061;-86
2022/11/06 13:32:14;;;;;;;1.80;1.38;;;;;;;;;;4946436;28;20128;-85
2022/11/06 13:34:42;;;;;;;4.40;2.40;;;;;;;;;;4962124;28;20117;-85
2022/11/06 13:37:19;;;;;;;2.35;1.60;;;;;;;;;;4979529;28;20031;-85
2022/11/06 13:40:03;;;;;;;2.78;1.88;;;;;;;;;;4979616;28;20054;-86
2022/11/06 13:42:35;;;;;;;2.10;1.58;;;;;;;;;;4962709;28;20039;-86
2022/11/06 13:45:01;;;;;;;2.70;1.73;;;;;;;;;;4979277;28;20031;-86
2022/11/06 13:47:46;;;;;;;2.40;1.80;;;;;;;;;;4962636;28;20045;-86
2022/11/06 13:50:27;;;;;;;2.33;1.60;;;;;;;;;;4977515;28;20042;-85
2022/11/06 13:53:11;;;;;;;2.25;1.50;;;;;;;;;;4978250;28;20131;-86
2022/11/06 13:56:09;;;;;;;3.13;1.13;;;;;;;;;;4961912;28;20035;-86
2022/11/06 13:58:53;;;;;;;1.52;1.10;;;;;;;;;;4974591;28;20043;-86
2022/11/06 14:01:27;;;;;;;10.32;6.32;;;;;;;;;;4980007;28;20046;-86
2022/11/06 14:04:19;;;;;;;6.20;4.28;;;;;;;;;;4978580;28;20034;-86
2022/11/06 14:06:46;;;;;;;19.92;12.00;;;;;;;;;;4978619;28;20055;-86
2022/11/06 14:09:23;;;;;;;51.22;28.98;;;;;;;;;;4979317;28;20046;-85
2022/11/06 14:11:56;;;;;;;3.33;2.50;;;;;;;;;;4979367;28;20408;-86
2022/11/06 14:14:21;;;;;;;3.57;2.27;;;;;;;;;;4959937;28;20074;-85
2022/11/06 14:17:12;;;;;;;42.22;26.70;;;;;;;;;;4979190;28;20285;-87
2022/11/06 14:19:40;;;;;;;2.92;2.33;;;;;;;;;;4978915;28;20595;-85
2022/11/06 14:22:08;;;;;;;2.80;1.60;;;;;;;;;;4962375;28;20046;-87
2022/11/06 14:24:35;;;;;;;4.22;1.50;;;;;;;;;;4978105;28;20030;-85
2022/11/06 14:27:09;;;;;;;2.45;1.60;;;;;;;;;;4978114;28;20037;-86
2022/11/06 14:29:34;;;;;;;1.50;1.20;;;;;;;;;;4978410;28;20123;-84
2022/11/06 14:32:01;;;;;;;1.77;1.30;;;;;;;;;;4960789;28;20046;-86
2022/11/06 14:34:32;;;;;;;3.25;1.60;;;;;;;;;;4977652;28;20039;-85
2022/11/06 14:36:58;;;;;;;3.55;2.92;;;;;;;;;;4961187;28;20046;-85
2022/11/06 14:39:54;;;;;;;2.17;1.90;;;;;;;;;;4961630;28;20503;-86
2022/11/06 14:42:23;;;;;;;1.73;1.60;;;;;;;;;;4978393;28;20062;-85
2022/11/06 14:44:58;;;;;;;2.30;1.52;;;;;;;;;;4978097;28;20074;-85
2022/11/06 14:47:29;;;;;;;1.60;1.20;;;;;;;;;;4978321;28;20488;-85
2022/11/06 14:49:57;;;;;;;1.40;1.10;;;;;;;;;;4976414;28;20046;-84
2022/11/06 14:52:24;;;;;;;2.20;1.00;;;;;;;;;;4977337;28;20476;-85
2022/11/06 14:54:57;;;;;;;1.52;0.90;;;;;;;;;;4977363;28;20039;-86
2022/11/06 14:57:39;;;;;;;;;;;;;;;;;;4960640;28;20407;-82
2022/11/06 15:00:05;;;;;;;1.50;1.10;;;;;;;;;;4978306;28;19914;-84
2022/11/06 15:02:34;;;;;;;1.00;0.90;;;;;;;;;;4977338;28;20034;-84
2022/11/06 15:05:26;;;;;;;1.35;1.05;;;;;;;;;;4958976;28;20038;-85
2022/11/06 15:07:56;;;;;;;2.58;1.65;;;;;;;;;;4973438;28;20077;-85
2022/11/06 15:10:43;;;;;;;2.58;1.60;;;;;;;;;;4977477;28;20317;-84
2022/11/06 15:13:15;;;;;;;3.30;2.50;;;;;;;;;;4958934;28;20034;-85
2022/11/06 15:15:43;;;;;;;2.72;1.30;;;;;;;;;;4959299;28;20043;-84
2022/11/06 15:18:11;;;;;;;1.30;1.10;;;;;;;;;;4960076;28;20384;-85
2022/11/06 15:20:37;;;;;;;1.95;1.58;;;;;;;;;;4960165;28;20039;-86
2022/11/06 15:23:12;;;;;;;1.02;0.93;;;;;;;;;;4959563;28;20106;-84
2022/11/06 15:25:45;;;;;;;2.42;1.10;;;;;;;;;;4976169;28;20046;-84